Time;durP1;ratioP1;P1;durP2;ratioP2;P2;SDS_P1;SDS_P2;PMS_P1;PMS_P2;Temp;Humidity;BMP_temperature;BMP_pressure;BME280_temperature;BME280_humidity;BME280_pressure;Samples;Min_cycle;Max_cycle;Signal;HPM_P1;HPM_P2
2020/12/24 00:00:07;;;;;;;8.35;3.47;;;23.00;73.20;;;;;;6364071;22;19998;-69
2020/12/24 00:02:34;;;;;;;8.40;2.95;;;23.00;73.30;;;;;;6364043;22;20058;-71
2020/12/24 00:05:00;;;;;;;5.05;2.63;;;23.00;73.40;;;;;;6361024;22;20318;-71
2020/12/24 00:07:27;;;;;;;6.63;2.38;;;23.00;73.40;;;;;;6362709;22;20071;-70
2020/12/24 00:09:53;;;;;;;5.60;2.20;;;23.00;73.40;;;;;;6364424;22;19995;-70
2020/12/24 00:12:20;;;;;;;5.35;2.08;;;23.00;73.50;;;;;;6362915;22;20005;-70
2020/12/24 00:14:47;;;;;;;4.65;2.20;;;23.00;73.60;;;;;;6364500;22;20002;-71
2020/12/24 00:17:13;;;;;;;4.53;2.13;;;23.00;73.60;;;;;;6362247;22;20038;-68
2020/12/24 00:19:40;;;;;;;5.25;1.92;;;23.00;73.70;;;;;;6363927;22;20341;-71
2020/12/24 00:22:06;;;;;;;2.88;1.80;;;23.00;73.80;;;;;;6364062;22;20085;-71
2020/12/24 00:24:33;;;;;;;2.92;1.58;;;23.00;73.80;;;;;;6363897;22;19994;-71
2020/12/24 00:27:00;;;;;;;5.63;1.98;;;22.90;73.90;;;;;;6363922;22;20451;-69
2020/12/24 00:29:26;;;;;;;4.32;2.17;;;23.00;74.00;;;;;;6363092;22;19994;-71
2020/12/24 00:31:53;;;;;;;4.78;1.83;;;22.90;74.10;;;;;;6364002;22;20030;-69
2020/12/24 00:34:20;;;;;;;5.57;1.58;;;22.90;74.20;;;;;;6362273;22;20171;-70
2020/12/24 00:36:46;;;;;;;4.68;2.28;;;22.90;74.10;;;;;;6363575;22;20014;-70
2020/12/24 00:39:12;;;;;;;2.80;1.73;;;22.90;74.70;;;;;;6363628;22;20081;-70
2020/12/24 00:41:39;;;;;;;4.95;1.90;;;22.90;74.20;;;;;;6362909;22;20081;-70
2020/12/24 00:44:06;;;;;;;4.53;2.08;;;22.90;74.20;;;;;;6364479;22;20009;-69
2020/12/24 00:46:32;;;;;;;6.40;2.28;;;22.90;74.30;;;;;;6362457;22;20044;-69
2020/12/24 00:48:59;;;;;;;4.18;2.13;;;22.90;74.30;;;;;;6364139;22;20013;-70
2020/12/24 00:51:25;;;;;;;6.80;2.95;;;22.80;74.20;;;;;;6362553;22;20374;-70
2020/12/24 00:53:52;;;;;;;14.55;3.22;;;22.80;74.20;;;;;;6364177;22;20006;-69
2020/12/24 00:56:18;;;;;;;8.93;3.10;;;22.80;74.10;;;;;;6363546;22;20017;-70
2020/12/24 00:58:45;;;;;;;15.98;5.72;;;22.90;74.20;;;;;;6363771;22;19998;-71
2020/12/24 01:01:12;;;;;;;7.80;3.25;;;22.80;74.20;;;;;;6363945;22;20330;-70
2020/12/24 01:03:38;;;;;;;10.35;4.63;;;22.80;74.10;;;;;;6363242;22;19998;-70
2020/12/24 01:06:04;;;;;;;12.55;4.38;;;22.80;74.10;;;;;;6363739;22;20065;-70
2020/12/24 01:08:31;;;;;;;13.20;4.22;;;22.80;74.10;;;;;;6363025;22;20022;-69
2020/12/24 01:10:58;;;;;;;9.57;4.13;;;22.80;74.10;;;;;;6364395;22;20074;-70
2020/12/24 01:13:24;;;;;;;16.85;4.85;;;22.80;74.10;;;;;;6362727;22;19999;-71
2020/12/24 01:15:51;;;;;;;9.88;4.25;;;22.70;74.00;;;;;;6363657;22;20338;-70
2020/12/24 01:18:17;;;;;;;19.63;6.57;;;22.80;74.20;;;;;;6363630;22;20006;-70
2020/12/24 01:20:45;;;;;;;23.77;7.18;;;22.70;74.20;;;;;;6363122;22;20452;-70
2020/12/24 01:23:12;;;;;;;20.95;6.55;;;22.70;74.20;;;;;;6364315;22;20051;-71
2020/12/24 01:25:39;;;;;;;18.80;6.80;;;22.70;74.20;;;;;;6363289;22;19994;-70
2020/12/24 01:28:05;;;;;;;24.77;7.18;;;22.70;74.20;;;;;;6364131;22;20104;-71
2020/12/24 01:30:32;;;;;;;25.60;6.85;;;22.70;74.10;;;;;;6362642;22;20077;-71
2020/12/24 01:32:58;;;;;;;24.48;7.38;;;22.70;74.00;;;;;;6364075;22;20533;-71
2020/12/24 01:35:25;;;;;;;26.80;7.85;;;22.70;73.90;;;;;;6363914;22;20007;-70
2020/12/24 01:37:51;;;;;;;25.77;8.90;;;22.70;73.80;;;;;;6334746;22;20330;-72
2020/12/24 01:40:18;;;;;;;32.28;14.48;;;22.70;73.70;;;;;;6364266;22;20010;-70
2020/12/24 01:42:44;;;;;;;26.75;13.30;;;22.70;73.60;;;;;;6362765;22;19998;-70
2020/12/24 01:45:11;;;;;;;28.27;11.40;;;22.60;73.50;;;;;;6336344;22;20342;-70
2020/12/24 01:47:37;;;;;;;25.38;9.02;;;22.60;73.40;;;;;;6362516;22;19998;-70
2020/12/24 01:50:05;;;;;;;27.20;9.40;;;22.60;73.30;;;;;;6364134;22;20429;-70
2020/12/24 01:52:38;;;;;;;38.13;7.57;;;22.60;73.20;;;;;;6363504;22;20140;-71
2020/12/24 01:55:08;;;;;;;25.42;7.38;;;22.60;73.20;;;;;;6365331;22;20002;-70
2020/12/24 01:57:35;;;;;;;23.15;8.35;;;22.60;73.20;;;;;;6366572;22;20022;-71
2020/12/24 02:00:06;;;;;;;25.55;8.02;;;22.50;73.10;;;;;;6364205;22;20002;-70
2020/12/24 02:02:33;;;;;;;23.38;9.07;;;22.50;73.20;;;;;;6365696;22;20029;-71
2020/12/24 02:04:59;;;;;;;13.60;5.40;;;22.50;73.30;;;;;;6363480;22;20002;-69
2020/12/24 02:07:26;;;;;;;21.80;6.78;;;22.60;73.50;;;;;;6366220;22;19994;-70
2020/12/24 02:09:53;;;;;;;17.88;7.88;;;22.50;73.50;;;;;;6364591;22;20067;-70
2020/12/24 02:12:20;;;;;;;15.73;9.25;;;22.50;73.60;;;;;;6365103;22;19999;-70
2020/12/24 02:14:47;;;;;;;14.15;8.00;;;22.50;73.80;;;;;;6365663;22;19998;-70
2020/12/24 02:17:14;;;;;;;17.20;6.85;;;22.50;73.80;;;;;;6364255;22;20037;-71
2020/12/24 02:19:41;;;;;;;15.68;6.03;;;22.50;73.90;;;;;;6363469;22;20003;-70
2020/12/24 02:22:10;;;;;;;20.85;7.30;;;22.50;74.00;;;;;;6364733;22;20665;-70
2020/12/24 02:24:42;;;;;;;14.20;5.97;;;22.50;74.10;;;;;;6365532;22;20380;-70
2020/12/24 02:27:09;;;;;;;16.30;6.90;;;22.50;74.20;;;;;;6364727;22;20334;-69
2020/12/24 02:29:36;;;;;;;24.80;7.38;;;22.50;74.20;;;;;;6365074;22;20022;-70
2020/12/24 02:32:03;;;;;;;11.23;4.50;;;22.50;74.80;;;;;;6365311;22;20002;-70
2020/12/24 02:34:30;;;;;;;18.98;4.78;;;22.40;74.10;;;;;;6364588;22;20288;-70
2020/12/24 02:36:56;;;;;;;4.53;3.20;;;22.40;74.10;;;;;;6365440;22;20071;-71
2020/12/24 02:39:23;;;;;;;11.65;4.07;;;22.40;74.10;;;;;;6363928;22;20002;-70
2020/12/24 02:41:49;;;;;;;6.60;3.30;;;22.40;74.10;;;;;;6365669;22;20516;-70
2020/12/24 02:44:16;;;;;;;4.63;3.00;;;22.40;74.00;;;;;;6364523;22;20113;-70
2020/12/24 02:46:43;;;;;;;6.32;2.90;;;22.40;74.00;;;;;;6364899;22;19994;-70
2020/12/24 02:49:10;;;;;;;7.32;3.53;;;22.40;73.90;;;;;;6337233;22;20430;-70
2020/12/24 02:51:36;;;;;;;5.05;3.30;;;22.30;73.80;;;;;;6364491;22;20477;-70
2020/12/24 02:54:04;;;;;;;5.10;3.05;;;22.30;73.80;;;;;;6365343;22;19998;-70
2020/12/24 02:56:31;;;;;;;4.55;3.38;;;22.30;73.80;;;;;;6363956;22;20085;-70
2020/12/24 02:58:58;;;;;;;7.07;4.25;;;22.30;73.90;;;;;;6365241;22;20325;-70
2020/12/24 03:01:24;;;;;;;9.43;3.70;;;22.30;73.90;;;;;;6363943;22;20065;-71
2020/12/24 03:03:51;;;;;;;7.93;3.53;;;22.30;74.00;;;;;;6365705;22;19998;-72
2020/12/24 03:06:17;;;;;;;6.55;3.20;;;22.30;73.90;;;;;;6364683;22;20009;-70
2020/12/24 03:08:44;;;;;;;10.60;3.22;;;22.30;73.90;;;;;;6364538;22;19994;-70
2020/12/24 03:11:11;;;;;;;7.75;4.03;;;22.30;74.00;;;;;;6364517;22;20079;-69
2020/12/24 03:13:38;;;;;;;5.82;3.30;;;22.30;73.90;;;;;;6363720;22;20389;-71
2020/12/24 03:16:04;;;;;;;8.45;3.58;;;22.30;74.00;;;;;;6364984;22;20014;-70
2020/12/24 03:18:31;;;;;;;7.18;3.03;;;22.30;74.00;;;;;;6364186;22;20001;-70
2020/12/24 03:20:58;;;;;;;5.55;2.70;;;22.30;74.00;;;;;;6364022;22;20006;-71
2020/12/24 03:23:24;;;;;;;4.80;3.25;;;22.30;74.00;;;;;;6364014;22;20497;-71
2020/12/24 03:25:51;;;;;;;5.72;3.08;;;22.30;74.00;;;;;;6364863;22;20330;-70
2020/12/24 03:28:18;;;;;;;6.97;4.57;;;22.30;74.10;;;;;;6364527;22;19999;-70
2020/12/24 03:30:44;;;;;;;6.05;3.85;;;22.30;74.10;;;;;;6363833;22;20001;-70
2020/12/24 03:33:11;;;;;;;6.22;3.10;;;22.30;74.20;;;;;;6365464;22;20048;-69
2020/12/24 03:35:38;;;;;;;7.03;3.33;;;22.30;74.20;;;;;;6363711;22;20391;-71
2020/12/24 03:38:04;;;;;;;4.13;2.70;;;22.20;74.10;;;;;;6360806;22;20002;-71
2020/12/24 03:40:31;;;;;;;6.63;2.47;;;22.30;74.20;;;;;;6362703;22;20021;-71
2020/12/24 03:42:58;;;;;;;11.35;9.43;;;22.30;74.20;;;;;;6363797;22;20002;-70
2020/12/24 03:45:27;;;;;;;13.43;11.25;;;22.20;74.20;;;;;;6364171;22;20073;-70
2020/12/24 03:47:54;;;;;;;10.02;8.05;;;22.20;74.90;;;;;;6362894;22;19999;-70
2020/12/24 03:50:21;;;;;;;7.53;6.25;;;22.20;74.20;;;;;;6363491;22;20006;-71
2020/12/24 03:52:48;;;;;;;6.13;4.03;;;22.20;74.30;;;;;;6362268;22;20342;-69
2020/12/24 03:55:15;;;;;;;6.05;3.42;;;22.20;74.30;;;;;;6363979;22;20021;-70
2020/12/24 03:57:41;;;;;;;3.72;2.35;;;22.20;74.90;;;;;;6362120;22;19995;-71
2020/12/24 04:00:08;;;;;;;4.55;2.03;;;22.20;74.20;;;;;;6365125;22;20329;-69
2020/12/24 04:02:34;;;;;;;4.53;2.47;;;22.20;74.20;;;;;;6335472;22;20059;-70
2020/12/24 04:05:02;;;;;;;4.13;2.20;;;22.20;74.20;;;;;;6362592;22;20002;-70
2020/12/24 04:07:28;;;;;;;2.97;1.98;;;22.20;74.20;;;;;;6365087;22;20013;-74
2020/12/24 04:09:55;;;;;;;3.47;2.30;;;22.20;74.30;;;;;;6358997;22;20408;-67
2020/12/24 04:12:22;;;;;;;4.20;3.15;;;22.20;74.50;;;;;;6363807;22;20050;-70
2020/12/24 04:14:48;;;;;;;4.57;3.40;;;22.20;74.50;;;;;;6362301;22;19994;-68
2020/12/24 04:17:15;;;;;;;4.32;2.97;;;22.20;74.60;;;;;;6364513;22;20056;-69
2020/12/24 04:19:41;;;;;;;4.28;2.70;;;22.20;74.70;;;;;;6363692;22;20475;-68
2020/12/24 04:22:08;;;;;;;5.28;2.67;;;22.20;74.80;;;;;;6363876;22;20515;-69
2020/12/24 04:24:34;;;;;;;4.30;2.70;;;22.20;74.90;;;;;;6364270;22;19994;-72
2020/12/24 04:27:01;;;;;;;6.88;3.95;;;22.20;75.10;;;;;;6362814;22;20052;-69
2020/12/24 04:29:28;;;;;;;10.50;8.27;;;22.20;75.10;;;;;;6364219;22;20055;-70
2020/12/24 04:31:55;;;;;;;11.55;8.57;;;22.20;75.30;;;;;;6362656;22;20002;-71
2020/12/24 04:34:24;;;;;;;7.95;6.93;;;22.20;75.30;;;;;;6364614;22;20002;-72
2020/12/24 04:36:51;;;;;;;9.23;5.75;;;22.30;75.50;;;;;;6363106;22;20013;-72
2020/12/24 04:39:19;;;;;;;6.22;4.13;;;22.30;75.50;;;;;;6364050;22;19998;-71
2020/12/24 04:41:47;;;;;;;7.13;4.03;;;22.30;75.60;;;;;;6363780;22;20443;-71
2020/12/24 04:44:15;;;;;;;4.85;3.47;;;22.20;75.60;;;;;;6363089;22;20006;-75
2020/12/24 04:46:43;;;;;;;4.32;2.63;;;22.30;75.60;;;;;;6364545;22;20051;-71
2020/12/24 04:49:11;;;;;;;5.72;2.92;;;22.30;75.60;;;;;;6363553;22;19998;-72
2020/12/24 04:51:38;;;;;;;5.22;2.63;;;22.20;75.60;;;;;;6364367;22;20014;-72
2020/12/24 04:54:08;;;;;;;2.88;2.20;;;22.30;75.50;;;;;;6362283;22;20002;-74
2020/12/24 04:56:34;;;;;;;7.82;2.80;;;22.30;75.50;;;;;;6363214;22;20461;-73
2020/12/24 04:59:01;;;;;;;3.97;2.90;;;22.20;75.40;;;;;;6363051;22;20025;-70
2020/12/24 05:01:28;;;;;;;12.60;2.63;;;22.30;75.40;;;;;;6362702;22;20086;-72
2020/12/24 05:03:56;;;;;;;4.05;2.65;;;22.30;75.30;;;;;;6364208;22;19999;-73
2020/12/24 05:06:23;;;;;;;4.82;2.97;;;22.30;75.30;;;;;;6362485;22;20065;-70
2020/12/24 05:08:55;;;;;;;4.95;2.88;;;22.30;75.30;;;;;;6363911;22;20010;-71
2020/12/24 05:11:28;;;;;;;5.78;4.55;;;22.30;75.20;;;;;;6362235;22;20097;-73
2020/12/24 05:13:56;;;;;;;10.20;3.42;;;22.30;75.20;;;;;;6363364;22;20082;-73
2020/12/24 05:16:25;;;;;;;13.27;4.65;;;22.30;75.20;;;;;;6363081;22;20006;-70
2020/12/24 05:18:52;;;;;;;11.77;3.78;;;22.30;75.20;;;;;;6362675;22;19994;-73
2020/12/24 05:21:33;;;;;;;13.77;4.05;;;22.30;75.20;;;;;;6363388;22;19999;-71
2020/12/24 05:24:01;;;;;;;5.72;2.80;;;22.40;75.30;;;;;;6362119;22;20002;-71
2020/12/24 05:26:31;;;;;;;8.85;3.65;;;22.40;75.30;;;;;;6363685;22;20007;-70
2020/12/24 05:29:11;;;;;;;9.70;2.70;;;22.40;75.30;;;;;;6365200;22;20425;-70
2020/12/24 05:31:39;;;;;;;9.70;5.03;;;22.40;75.30;;;;;;6365146;22;20005;-69
2020/12/24 05:34:05;;;;;;;8.52;5.35;;;22.40;75.40;;;;;;6366518;22;19998;-69
2020/12/24 05:36:33;;;;;;;15.80;12.00;;;22.40;75.40;;;;;;6364976;22;20010;-70
2020/12/24 05:38:59;;;;;;;14.80;8.55;;;22.40;75.40;;;;;;6366039;22;20372;-71
2020/12/24 05:41:30;;;;;;;10.70;7.10;;;22.50;75.50;;;;;;6364889;22;19994;-70
2020/12/24 05:44:09;;;;;;;10.25;4.82;;;22.50;75.50;;;;;;6365931;22;20002;-72
2020/12/24 05:46:46;;;;;;;8.10;4.22;;;22.50;75.50;;;;;;6366230;22;20055;-72
2020/12/24 05:49:18;;;;;;;6.30;3.58;;;22.50;75.50;;;;;;6366516;22;20014;-74
2020/12/24 05:51:49;;;;;;;6.20;3.17;;;22.50;75.50;;;;;;6366725;22;20018;-74
2020/12/24 05:54:17;;;;;;;5.35;3.00;;;22.50;75.40;;;;;;6366804;22;20003;-72
2020/12/24 05:56:45;;;;;;;4.82;2.40;;;22.60;75.40;;;;;;6366936;22;20045;-71
2020/12/24 05:59:17;;;;;;;7.78;3.60;;;22.60;75.40;;;;;;6365820;22;20003;-73
2020/12/24 06:02:06;;;;;;;9.10;2.90;;;22.60;75.30;;;;;;6366664;22;20081;-73
2020/12/24 06:04:44;;;;;;;5.82;3.28;;;22.60;75.50;;;;;;6366476;22;20070;-72
2020/12/24 06:07:15;;;;;;;10.18;2.47;;;22.60;75.60;;;;;;6365952;22;20006;-72
2020/12/24 06:09:47;;;;;;;4.38;2.10;;;22.60;75.60;;;;;;6367584;22;19995;-73
2020/12/24 06:12:22;;;;;;;8.32;2.75;;;22.60;75.60;;;;;;6366459;22;19998;-73
2020/12/24 06:14:57;;;;;;;8.45;2.97;;;22.60;75.50;;;;;;6337977;22;19995;-71
2020/12/24 06:17:26;;;;;;;4.35;2.10;;;22.70;75.50;;;;;;6367488;22;20017;-75
2020/12/24 06:19:53;;;;;;;10.25;6.93;;;22.70;75.40;;;;;;6365084;22;20004;-75
2020/12/24 06:22:21;;;;;;;11.25;7.28;;;22.70;75.30;;;;;;6366469;22;19994;-74
2020/12/24 06:25:27;;;;;;;6.28;4.72;;;22.80;75.20;;;;;;6361001;22;20005;-76
2020/12/24 06:28:33;;;;;;;7.32;3.97;;;22.80;75.10;;;;;;6336592;22;19999;-81
2020/12/24 06:31:39;;;;;;;4.20;3.60;;;22.80;74.90;;;;;;6366432;22;20080;-77
2020/12/24 06:35:01;;;;;;;54.47;14.68;;;22.80;74.80;;;;;;6365987;22;20580;-72
2020/12/24 06:38:07;;;;;;;61.75;15.88;;;22.90;74.70;;;;;;6364523;22;20429;-73
2020/12/24 06:40:38;;;;;;;32.10;11.07;;;22.90;74.60;;;;;;6365877;22;20006;-72
2020/12/24 06:43:06;;;;;;;19.20;6.47;;;22.90;74.50;;;;;;6366783;22;19998;-72
2020/12/24 06:45:35;;;;;;;17.70;6.25;;;22.90;74.30;;;;;;6364699;22;20079;-71
2020/12/24 06:48:22;;;;;;;18.42;5.60;;;23.00;74.20;;;;;;6367040;22;19991;-72
2020/12/24 06:51:02;;;;;;;13.82;4.75;;;23.00;74.00;;;;;;6365474;22;19998;-72
2020/12/24 06:53:30;;;;;;;15.88;4.82;;;23.00;73.70;;;;;;6365757;22;20014;-71
2020/12/24 06:56:15;;;;;;;11.77;3.72;;;23.00;73.60;;;;;;6366058;22;20341;-72
2020/12/24 06:58:46;;;;;;;11.18;3.92;;;23.10;73.50;;;;;;6364492;22;20010;-72
2020/12/24 07:01:26;;;;;;;14.73;3.95;;;23.10;73.40;;;;;;6366353;22;20301;-72
2020/12/24 07:03:54;;;;;;;8.20;3.83;;;23.10;73.40;;;;;;6365508;22;20422;-72
2020/12/24 07:06:47;;;;;;;9.43;3.30;;;23.10;73.30;;;;;;6365519;22;20052;-72
2020/12/24 07:09:19;;;;;;;10.32;2.97;;;23.20;73.20;;;;;;6367436;22;20305;-72
2020/12/24 07:11:48;;;;;;;6.13;2.05;;;23.20;73.10;;;;;;6365532;22;20048;-72
2020/12/24 07:14:40;;;;;;;8.93;3.33;;;23.20;72.80;;;;;;6366463;22;19995;-72
2020/12/24 07:17:18;;;;;;;4.85;2.97;;;23.30;72.70;;;;;;6358814;22;20074;-72
2020/12/24 07:19:46;;;;;;;4.30;2.15;;;23.30;72.50;;;;;;6365664;22;19999;-72
2020/12/24 07:22:17;;;;;;;7.13;2.38;;;23.30;72.40;;;;;;6366593;22;20085;-72
2020/12/24 07:25:02;;;;;;;5.82;2.80;;;23.30;72.20;;;;;;6364614;22;20002;-72
2020/12/24 07:27:29;;;;;;;5.93;3.95;;;23.40;72.10;;;;;;6366286;22;20063;-72
2020/12/24 07:29:57;;;;;;;5.22;2.97;;;23.40;71.90;;;;;;6365309;22;20003;-72
2020/12/24 07:32:23;;;;;;;5.38;3.17;;;23.40;71.60;;;;;;6366489;22;20005;-72
2020/12/24 07:34:50;;;;;;;7.10;3.17;;;23.50;71.40;;;;;;6366242;22;20002;-72
2020/12/24 07:37:16;;;;;;;3.42;2.38;;;23.50;71.10;;;;;;6365598;22;20378;-72
2020/12/24 07:39:53;;;;;;;7.25;3.25;;;23.60;70.80;;;;;;6366224;22;19998;-71
2020/12/24 07:42:23;;;;;;;4.50;2.50;;;23.70;70.40;;;;;;6364279;22;20626;-72
2020/12/24 07:44:50;;;;;;;5.68;2.22;;;23.70;70.10;;;;;;6366576;22;20075;-73
2020/12/24 07:47:17;;;;;;;3.90;2.47;;;23.80;69.80;;;;;;6363978;22;20101;-76
2020/12/24 07:49:53;;;;;;;4.47;1.90;;;23.90;69.50;;;;;;6364419;22;20379;-74
2020/12/24 07:52:20;;;;;;;3.67;2.15;;;24.00;69.10;;;;;;6364933;22;20059;-74
2020/12/24 07:54:46;;;;;;;7.93;2.10;;;24.10;68.80;;;;;;6335043;22;20440;-75
2020/12/24 07:57:23;;;;;;;7.43;3.13;;;24.20;68.60;;;;;;6365519;22;20014;-75
2020/12/24 07:59:59;;;;;;;5.90;1.90;;;24.10;68.30;;;;;;6336176;22;20327;-74
2020/12/24 08:02:26;;;;;;;5.63;2.22;;;24.20;68.20;;;;;;6364354;22;20322;-73
2020/12/24 08:04:55;;;;;;;7.07;3.25;;;24.20;68.00;;;;;;6336163;22;19999;-73
2020/12/24 08:07:23;;;;;;;6.25;2.20;;;24.20;67.80;;;;;;6363638;22;20026;-74
2020/12/24 08:09:49;;;;;;;7.78;2.65;;;24.20;67.60;;;;;;6364928;22;20024;-74
2020/12/24 08:12:23;;;;;;;8.85;3.28;;;24.30;67.40;;;;;;6363305;22;19999;-74
2020/12/24 08:14:50;;;;;;;7.18;2.80;;;24.30;67.20;;;;;;6364621;22;20828;-72
2020/12/24 08:17:32;;;;;;;5.50;2.60;;;24.30;67.10;;;;;;6363276;22;20010;-72
2020/12/24 08:20:10;;;;;;;12.07;2.97;;;24.30;67.00;;;;;;6363979;22;20077;-72
2020/12/24 08:22:48;;;;;;;7.68;3.80;;;24.40;66.90;;;;;;6365108;22;19998;-72
2020/12/24 08:25:17;;;;;;;9.02;3.58;;;24.40;66.80;;;;;;6362707;22;20077;-72
2020/12/24 08:27:45;;;;;;;8.30;5.05;;;24.40;66.60;;;;;;6363953;22;19998;-73
2020/12/24 08:30:16;;;;;;;6.75;2.78;;;24.40;66.60;;;;;;6361901;22;20026;-73
2020/12/24 08:32:43;;;;;;;4.97;1.83;;;24.50;65.40;;;;;;6364133;22;19998;-76
2020/12/24 08:35:11;;;;;;;3.63;2.08;;;24.60;64.30;;;;;;6363288;22;20079;-75
2020/12/24 08:37:38;;;;;;;6.35;2.22;;;24.60;65.00;;;;;;6363576;22;20126;-73
2020/12/24 08:40:33;;;;;;;4.90;2.20;;;24.50;64.50;;;;;;6363879;22;19994;-76
2020/12/24 08:43:00;;;;;;;7.43;2.13;;;24.60;64.10;;;;;;6358231;22;20329;-74
2020/12/24 08:45:27;;;;;;;5.03;2.17;;;24.50;64.50;;;;;;6364608;22;20006;-74
2020/12/24 08:47:55;;;;;;;7.72;2.38;;;24.60;64.70;;;;;;6363823;22;19999;-75
2020/12/24 08:50:35;;;;;;;7.85;2.58;;;24.60;64.70;;;;;;6363527;22;20002;-76
2020/12/24 08:53:05;;;;;;;14.80;11.10;;;24.60;65.00;;;;;;6364691;22;20089;-74
2020/12/24 08:55:32;;;;;;;16.45;10.82;;;24.60;65.10;;;;;;6362581;22;20059;-75
2020/12/24 08:58:00;;;;;;;7.75;2.90;;;24.60;65.40;;;;;;6363316;22;20338;-74
2020/12/24 09:00:26;;;;;;;17.85;2.50;;;24.70;64.50;;;;;;6334471;22;20002;-73
2020/12/24 09:02:53;;;;;;;9.55;3.13;;;24.70;64.70;;;;;;6364383;22;20062;-71
2020/12/24 09:05:25;;;;;;;6.05;2.40;;;24.60;64.80;;;;;;6363382;22;19999;-70
2020/12/24 09:07:52;;;;;;;10.85;3.03;;;24.70;65.00;;;;;;6363767;22;20099;-71
2020/12/24 09:10:28;;;;;;;6.20;2.22;;;24.70;65.50;;;;;;6364625;22;20422;-72
2020/12/24 09:13:02;;;;;;;6.15;2.42;;;24.80;64.80;;;;;;6334737;22;19999;-76
2020/12/24 09:15:29;;;;;;;4.57;2.30;;;24.80;64.70;;;;;;6364128;22;20067;-73
2020/12/24 09:17:58;;;;;;;11.20;3.90;;;24.90;64.50;;;;;;6362627;22;19999;-73
2020/12/24 09:20:31;;;;;;;7.88;2.72;;;25.00;64.20;;;;;;6364419;22;20022;-79
2020/12/24 09:23:01;;;;;;;8.82;2.38;;;25.10;63.70;;;;;;6363388;22;20033;-76
2020/12/24 09:25:47;;;;;;;8.77;2.72;;;25.20;60.90;;;;;;6363188;22;19991;-75
2020/12/24 09:28:22;;;;;;;6.95;2.42;;;25.30;61.40;;;;;;6363081;22;20005;-78
2020/12/24 09:30:52;;;;;;;6.75;2.70;;;25.50;59.70;;;;;;6362548;22;20013;-75
2020/12/24 09:33:19;;;;;;;9.20;3.30;;;25.50;59.20;;;;;;6335629;22;20594;-77
2020/12/24 09:35:46;;;;;;;9.48;2.70;;;25.60;59.80;;;;;;6334538;22;20018;-73
2020/12/24 09:38:12;;;;;;;7.43;2.55;;;25.70;58.30;;;;;;6361008;22;20124;-74
2020/12/24 09:40:40;;;;;;;6.20;2.85;;;25.70;57.70;;;;;;6363406;22;20643;-75
2020/12/24 09:43:07;;;;;;;4.47;1.95;;;25.80;57.30;;;;;;6362358;22;20005;-76
2020/12/24 09:45:37;;;;;;;5.80;2.33;;;25.90;56.60;;;;;;6361770;22;20421;-75
2020/12/24 09:48:05;;;;;;;27.95;16.85;;;25.90;54.60;;;;;;6362769;22;20417;-75
2020/12/24 09:50:34;;;;;;;12.50;8.90;;;25.90;54.90;;;;;;6363590;22;20002;-73
2020/12/24 09:53:02;;;;;;;4.60;1.67;;;25.90;55.90;;;;;;6362968;22;20085;-72
2020/12/24 09:55:29;;;;;;;9.65;2.70;;;25.90;56.00;;;;;;6362838;22;20014;-72
2020/12/24 09:58:36;;;;;;;4.88;2.28;;;25.90;57.70;;;;;;6359812;22;20482;-72
2020/12/24 10:01:22;;;;;;;;;;;25.90;56.80;;;;;;6361566;22;20001;-75
2020/12/24 10:04:07;;;;;;;;;;;25.90;55.40;;;;;;6363727;22;19922;-75
2020/12/24 10:07:14;;;;;;;6.53;2.13;;;26.00;55.50;;;;;;6360005;22;19924;-73
2020/12/24 10:10:20;;;;;;;4.10;1.58;;;26.00;55.70;;;;;;6360796;22;20303;-80
2020/12/24 10:13:27;;;;;;;4.00;2.05;;;26.10;55.30;;;;;;6363248;22;19995;-72
2020/12/24 10:16:33;;;;;;;2.53;1.10;;;26.10;54.90;;;;;;6365066;22;20010;-74
2020/12/24 10:19:39;;;;;;;6.40;2.22;;;26.20;54.40;;;;;;6365232;22;20058;-71
2020/12/24 10:22:25;;;;;;;;;;;26.20;54.10;;;;;;6365203;22;20017;-82
2020/12/24 10:25:31;;;;;;;3.33;1.58;;;26.20;53.60;;;;;;6365238;22;19994;-71
2020/12/24 10:28:37;;;;;;;3.00;1.45;;;26.20;53.80;;;;;;6365816;22;20310;-73
2020/12/24 10:31:44;;;;;;;3.15;1.20;;;26.30;53.40;;;;;;6362340;22;20524;-72
2020/12/24 10:34:50;;;;;;;3.08;1.20;;;26.30;53.20;;;;;;6365367;22;20009;-78
2020/12/24 10:37:56;;;;;;;3.10;1.10;;;26.40;53.10;;;;;;6364881;22;20010;-69
2020/12/24 10:41:02;;;;;;;4.47;1.23;;;26.40;52.70;;;;;;6363929;22;20006;-75
2020/12/24 10:44:08;;;;;;;2.50;1.17;;;26.50;52.30;;;;;;6365190;22;19998;-78
2020/12/24 10:47:18;;;;;;;2.42;1.30;;;26.50;52.30;;;;;;6365862;22;20032;-76
2020/12/24 10:50:24;;;;;;;4.68;3.30;;;26.60;51.40;;;;;;6365291;22;20026;-76
2020/12/24 10:53:30;;;;;;;5.47;1.45;;;26.60;51.90;;;;;;6364903;22;20491;-80
2020/12/24 10:55:56;;;;;;;3.22;1.65;;;26.90;49.80;;;;;;6362890;22;20090;-86
2020/12/24 10:58:23;;;;;;;3.80;1.48;;;26.90;49.60;;;;;;6365858;22;20032;-78
2020/12/24 11:00:49;;;;;;;4.20;1.90;;;27.10;49.30;;;;;;6365655;22;20006;-82
2020/12/24 11:03:16;;;;;;;4.47;1.83;;;27.10;48.50;;;;;;6365945;22;20002;-83
2020/12/24 11:05:43;;;;;;;4.50;1.35;;;27.10;48.40;;;;;;6363801;22;20001;-80
2020/12/24 11:08:09;;;;;;;5.65;1.90;;;27.20;48.80;;;;;;6364520;22;20002;-77
2020/12/24 11:10:36;;;;;;;11.23;2.33;;;27.30;50.60;;;;;;6363801;22;20048;-75
2020/12/24 11:13:03;;;;;;;7.28;1.73;;;27.40;50.10;;;;;;6365623;22;20080;-80
2020/12/24 11:15:29;;;;;;;5.18;2.00;;;27.50;49.20;;;;;;6336733;22;20002;-75
2020/12/24 11:17:56;;;;;;;5.55;1.67;;;27.40;48.40;;;;;;6363449;22;20007;-76
2020/12/24 11:20:22;;;;;;;4.63;1.38;;;27.50;49.00;;;;;;6365554;22;19994;-80
2020/12/24 11:22:49;;;;;;;19.92;2.60;;;27.40;48.20;;;;;;6364004;22;20002;-80
2020/12/24 11:25:16;;;;;;;6.47;1.90;;;27.30;48.30;;;;;;6363891;22;19998;-79
2020/12/24 11:27:43;;;;;;;5.70;3.10;;;27.20;48.70;;;;;;6364088;22;20314;-78
2020/12/24 11:30:09;;;;;;;3.83;2.42;;;27.20;49.00;;;;;;6362585;22;20034;-79
2020/12/24 11:33:15;;;;;;;11.95;2.45;;;27.20;49.00;;;;;;6364386;22;20128;-80
2020/12/24 11:35:43;;;;;;;4.47;1.73;;;27.20;48.90;;;;;;6363119;22;20006;-78
2020/12/24 11:38:10;;;;;;;5.78;1.75;;;27.20;49.20;;;;;;6363650;22;20077;-78
2020/12/24 11:40:36;;;;;;;111.60;100.45;;;27.30;49.30;;;;;;6363752;22;20002;-82
2020/12/24 11:43:03;;;;;;;7.90;5.10;;;27.30;49.20;;;;;;6364867;22;20022;-82
2020/12/24 11:45:31;;;;;;;3.47;1.58;;;27.50;47.40;;;;;;6363462;22;20417;-79
2020/12/24 11:47:58;;;;;;;6.22;1.70;;;27.50;47.80;;;;;;6361453;22;20055;-82
2020/12/24 11:50:25;;;;;;;3.83;2.20;;;27.40;48.00;;;;;;6334053;22;20593;-81
2020/12/24 11:52:52;;;;;;;3.90;1.67;;;27.40;48.10;;;;;;6335262;22;20543;-82
2020/12/24 11:55:18;;;;;;;2.85;1.70;;;27.40;48.20;;;;;;6364468;22;20303;-74
2020/12/24 11:57:45;;;;;;;8.05;1.50;;;27.40;48.30;;;;;;6362134;22;20002;-81
2020/12/24 12:00:11;;;;;;;4.60;1.65;;;27.40;48.40;;;;;;6364264;22;20397;-81
2020/12/24 12:02:38;;;;;;;1.77;1.48;;;27.40;48.40;;;;;;6363399;22;20005;-81
2020/12/24 12:05:07;;;;;;;4.93;1.20;;;27.50;48.20;;;;;;6364041;22;20018;-78
2020/12/24 12:07:34;;;;;;;4.00;1.17;;;27.50;48.00;;;;;;6363609;22;19994;-78
2020/12/24 12:10:01;;;;;;;2.95;1.15;;;27.50;47.80;;;;;;6363052;22;20379;-78
2020/12/24 12:12:28;;;;;;;1.63;1.00;;;27.50;47.60;;;;;;6364750;22;19994;-82
2020/12/24 12:14:55;;;;;;;2.85;1.45;;;27.50;47.40;;;;;;6363043;22;20018;-81
2020/12/24 12:17:22;;;;;;;2.22;0.90;;;27.60;47.50;;;;;;6363658;22;20025;-81
2020/12/24 12:19:48;;;;;;;3.33;1.38;;;27.50;47.50;;;;;;6363105;22;20073;-79
2020/12/24 12:22:15;;;;;;;5.32;1.70;;;27.60;47.60;;;;;;6364439;22;20005;-81
2020/12/24 12:24:42;;;;;;;2.75;1.67;;;27.60;47.60;;;;;;6362630;22;20002;-76
2020/12/24 12:27:09;;;;;;;3.92;2.10;;;27.60;47.70;;;;;;6363860;22;19994;-77
2020/12/24 12:29:36;;;;;;;3.78;1.45;;;27.60;47.70;;;;;;6365253;22;20051;-79
2020/12/24 12:32:03;;;;;;;5.20;1.13;;;27.60;47.70;;;;;;6362753;22;19999;-76
2020/12/24 12:34:30;;;;;;;2.80;1.30;;;27.70;47.70;;;;;;6364179;22;20030;-77
2020/12/24 12:36:56;;;;;;;6.00;2.50;;;27.70;47.60;;;;;;6362335;22;20147;-80
2020/12/24 12:39:23;;;;;;;2.70;1.60;;;27.70;47.50;;;;;;6364635;22;20139;-77
2020/12/24 12:41:50;;;;;;;3.33;1.55;;;27.70;47.50;;;;;;6335464;22;20047;-77
2020/12/24 12:44:17;;;;;;;6.60;1.55;;;27.70;47.50;;;;;;6363569;22;19998;-77
2020/12/24 12:46:43;;;;;;;3.03;1.33;;;27.70;47.50;;;;;;6364369;22;19999;-80
2020/12/24 12:49:10;;;;;;;847.25;538.60;;;27.80;47.70;;;;;;6362950;22;20607;-77
2020/12/24 12:51:37;;;;;;;247.02;223.20;;;27.80;48.10;;;;;;6363670;22;20438;-77
2020/12/24 12:54:04;;;;;;;78.82;70.95;;;27.80;48.50;;;;;;6362669;22;19998;-76
2020/12/24 12:56:31;;;;;;;64.88;58.10;;;27.90;48.70;;;;;;6364852;22;20010;-78
2020/12/24 12:58:57;;;;;;;48.78;43.70;;;27.90;48.80;;;;;;6363366;22;19998;-77
2020/12/24 13:01:24;;;;;;;18.75;15.55;;;27.90;48.90;;;;;;6363810;22;20417;-80
2020/12/24 13:03:50;;;;;;;17.92;14.93;;;27.90;48.90;;;;;;6363806;22;20044;-79